Time;durP1;ratioP1;P1;durP2;ratioP2;P2;SDS_P1;SDS_P2;PMS_P1;PMS_P2;Temp;Humidity;BMP_temperature;BMP_pressure;BME280_temperature;BME280_humidity;BME280_pressure;Samples;Min_cycle;Max_cycle;Signal;HPM_P1;HPM_P2
2022/09/01 00:00:14;;;;;;;17.75;14.40;;;;;12.80;94369.00;;;;7390680;19;20144;-73
2022/09/01 00:02:42;;;;;;;21.50;14.25;;;;;13.10;94369.00;;;;7392769;19;20180;-72
2022/09/01 00:05:11;;;;;;;15.30;13.70;;;;;12.80;94370.00;;;;7393553;19;20156;-73
2022/09/01 00:07:45;;;;;;;20.45;16.20;;;;;12.70;94357.00;;;;7393007;19;20169;-73
2022/09/01 00:10:13;;;;;;;16.27;14.50;;;;;12.60;94359.00;;;;7391307;19;20133;-74
2022/09/01 00:12:42;;;;;;;26.88;17.55;;;;;12.60;94363.00;;;;7390726;19;20137;-73
2022/09/01 00:15:22;;;;;;;22.02;17.40;;;;;12.60;94356.00;;;;7392607;19;20152;-73
2022/09/01 00:17:49;;;;;;;24.02;18.55;;;;;12.70;94352.00;;;;7392172;19;20158;-73
2022/09/01 00:20:23;;;;;;;28.35;19.27;;;;;12.60;94348.00;;;;7391444;19;20912;-72
2022/09/01 00:22:51;;;;;;;29.77;20.35;;;;;12.80;94355.00;;;;7391370;19;20133;-72
2022/09/01 00:25:20;;;;;;;24.65;19.48;;;;;12.70;94356.00;;;;7392337;19;20152;-72
2022/09/01 00:27:59;;;;;;;33.15;21.83;;;;;12.70;94356.00;;;;7394124;19;20148;-72
2022/09/01 00:30:28;;;;;;;37.80;23.42;;;;;12.70;94353.00;;;;7390763;19;20191;-73
2022/09/01 00:32:56;;;;;;;38.88;26.88;;;;;12.80;94352.00;;;;7391506;19;20610;-72
2022/09/01 00:35:30;;;;;;;51.47;25.55;;;;;12.70;94355.00;;;;7394650;19;20132;-73
2022/09/01 00:38:03;;;;;;;45.88;28.27;;;;;12.60;94347.00;;;;7393056;19;20188;-72
2022/09/01 00:40:37;;;;;;;48.78;28.48;;;;;12.70;94347.00;;;;7391742;19;20571;-72
2022/09/01 00:43:19;;;;;;;48.15;31.90;;;;;12.60;94343.00;;;;7391000;19;20208;-73
2022/09/01 00:45:53;;;;;;;50.35;32.50;;;;;12.60;94343.00;;;;7387164;19;20141;-73
2022/09/01 00:48:27;;;;;;;51.90;33.25;;;;;12.60;94344.00;;;;7392185;19;20179;-72
2022/09/01 00:51:00;;;;;;;59.40;35.15;;;;;12.60;94349.00;;;;7390920;19;20591;-72
2022/09/01 00:53:36;;;;;;;55.28;33.22;;;;;12.60;94350.00;;;;7389641;19;20160;-73
2022/09/01 00:56:06;;;;;;;58.25;33.53;;;;;12.60;94345.00;;;;7393098;19;20129;-73
2022/09/01 00:58:42;;;;;;;60.92;37.05;;;;;12.70;94341.00;;;;7391307;19;20121;-72
2022/09/01 01:01:17;;;;;;;63.90;40.50;;;;;12.80;94342.00;;;;7391250;19;20140;-73
2022/09/01 01:03:45;;;;;;;75.93;41.97;;;;;13.10;94343.00;;;;7390920;19;20200;-72
2022/09/01 01:06:15;;;;;;;81.13;45.63;;;;;13.10;94342.00;;;;7388410;19;20521;-71
2022/09/01 01:08:57;;;;;;;73.72;43.85;;;;;12.90;94336.00;;;;7390065;19;20163;-71
2022/09/01 01:11:28;;;;;;;83.10;46.13;;;;;12.90;94340.00;;;;7391828;19;20950;-72
2022/09/01 01:14:11;;;;;;;99.18;52.35;;;;;13.10;94331.00;;;;7389533;19;20176;-74
2022/09/01 01:16:43;;;;;;;119.03;59.80;;;;;13.20;94325.00;;;;7388027;19;20169;-72
2022/09/01 01:23:01;;;;;;;178.65;69.32;;;;;13.40;94336.00;;;;7388755;19;20152;-74
2022/09/01 01:25:43;;;;;;;298.33;79.43;;;;;13.60;94331.00;;;;7393316;19;20567;-73
2022/09/01 01:28:15;;;;;;;196.43;72.43;;;;;13.70;94333.00;;;;7389674;19;20633;-75
2022/09/01 01:30:53;;;;;;;203.75;72.13;;;;;13.70;94336.00;;;;7389652;19;20153;-72
2022/09/01 01:33:23;;;;;;;293.55;78.43;;;;;13.70;94337.00;;;;7391643;19;20190;-73
2022/09/01 01:35:58;;;;;;;252.63;74.00;;;;;13.80;94333.00;;;;7389010;19;20156;-75
2022/09/01 01:38:29;;;;;;;148.35;59.75;;;;;13.70;94344.00;;;;7391495;19;20149;-73
2022/09/01 01:40:56;;;;;;;151.18;56.38;;;;;13.70;94328.00;;;;7389200;19;20157;-73
2022/09/01 01:43:38;;;;;;;114.95;51.33;;;;;13.60;94334.00;;;;7391229;19;20167;-73
2022/09/01 01:46:08;;;;;;;126.22;52.55;;;;;13.70;94332.00;;;;7386484;19;20223;-74
2022/09/01 01:48:46;;;;;;;451.48;61.88;;;;;13.60;94338.00;;;;7388348;19;20141;-73
2022/09/01 01:51:25;;;;;;;297.45;53.38;;;;;13.60;94340.00;;;;7388199;19;20718;-74
2022/09/01 01:53:54;;;;;;;479.52;57.05;;;;;13.60;94334.00;;;;7395763;19;20160;-72
2022/09/01 01:56:28;;;;;;;264.95;53.25;;;;;13.60;94341.00;;;;7396351;19;20599;-72
2022/09/01 01:58:56;;;;;;;142.15;43.08;;;;;13.60;94346.00;;;;7397261;19;20851;-73
2022/09/01 02:01:27;;;;;;;429.17;55.33;;;;;13.60;94345.00;;;;7397028;19;20141;-73
2022/09/01 02:04:03;;;;;;;702.83;72.75;;;;;13.60;94340.00;;;;7394142;19;20144;-73
2022/09/01 02:06:33;;;;;;;538.63;72.82;;;;;13.60;94337.00;;;;7395350;19;20156;-73
2022/09/01 02:09:02;;;;;;;472.25;67.05;;;;;13.60;94339.00;;;;7396990;19;20156;-73
2022/09/01 02:11:36;;;;;;;412.55;53.75;;;;;13.50;94340.00;;;;7398473;19;20132;-72
2022/09/01 02:14:12;;;;;;;576.45;62.55;;;;;13.60;94346.00;;;;7395077;19;20145;-73
2022/09/01 02:16:48;;;;;;;524.83;58.88;;;;;13.50;94345.00;;;;7393218;19;20520;-73
2022/09/01 02:19:19;;;;;;;359.90;52.90;;;;;13.50;94340.00;;;;7395910;19;20167;-72
2022/09/01 02:21:53;;;;;;;928.72;81.82;;;;;13.50;94338.00;;;;7395784;19;20145;-73
2022/09/01 02:24:30;;;;;;;565.22;63.78;;;;;13.40;94338.00;;;;7395140;19;20814;-72
2022/09/01 02:26:59;;;;;;;476.65;56.88;;;;;13.50;94342.00;;;;7396724;19;20603;-72
2022/09/01 02:29:27;;;;;;;477.88;57.42;;;;;13.40;94340.00;;;;7396437;19;20182;-73
2022/09/01 02:32:10;;;;;;;560.00;68.45;;;;;13.40;94343.00;;;;7396178;19;20152;-74
2022/09/01 02:34:38;;;;;;;181.13;48.60;;;;;13.40;94337.00;;;;7396907;19;20661;-73
2022/09/01 02:37:14;;;;;;;367.10;50.20;;;;;13.30;94337.00;;;;7395647;19;20644;-72
2022/09/01 02:39:42;;;;;;;436.20;57.58;;;;;13.30;94331.00;;;;7397031;19;20209;-74
2022/09/01 02:42:13;;;;;;;131.48;45.90;;;;;13.30;94326.00;;;;7395331;19;20246;-73
2022/09/01 02:44:50;;;;;;;250.70;51.15;;;;;13.30;94324.00;;;;7394414;19;20623;-72
2022/09/01 02:47:27;;;;;;;183.15;49.42;;;;;13.30;94331.00;;;;7394486;19;20182;-75
2022/09/01 02:50:12;;;;;;;280.00;50.85;;;;;13.20;94327.00;;;;7395658;19;20140;-77
2022/09/01 02:52:40;;;;;;;317.50;59.67;;;;;13.20;94337.00;;;;7395060;19;20164;-73
2022/09/01 02:55:19;;;;;;;370.90;54.55;;;;;13.20;94329.00;;;;7395891;19;20619;-73
2022/09/01 02:57:55;;;;;;;93.10;41.25;;;;;13.10;94325.00;;;;7396471;19;20164;-73
2022/09/01 03:00:38;;;;;;;181.07;46.30;;;;;13.10;94324.00;;;;7394752;19;20623;-73
2022/09/01 03:03:06;;;;;;;234.15;45.35;;;;;13.00;94323.00;;;;7391046;19;20184;-73
2022/09/01 03:05:40;;;;;;;251.00;45.80;;;;;13.00;94323.00;;;;7395888;19;20468;-74
2022/09/01 03:08:17;;;;;;;359.75;54.90;;;;;13.00;94317.00;;;;7394466;19;20132;-75
2022/09/01 03:10:48;;;;;;;144.48;43.15;;;;;13.00;94322.00;;;;7395559;19;20558;-74
2022/09/01 03:13:30;;;;;;;122.72;43.42;;;;;13.00;94325.00;;;;7394651;19;20655;-75
2022/09/01 03:16:10;;;;;;;310.10;53.33;;;;;13.00;94320.00;;;;7393927;19;20137;-73
2022/09/01 03:18:44;;;;;;;105.28;41.15;;;;;12.90;94322.00;;;;7392538;19;20212;-75
2022/09/01 03:21:15;;;;;;;87.15;40.78;;;;;12.90;94314.00;;;;7395444;19;20619;-72
2022/09/01 03:23:45;;;;;;;337.35;52.75;;;;;12.90;94326.00;;;;7394987;19;20151;-73
2022/09/01 03:26:21;;;;;;;107.28;41.30;;;;;12.90;94329.00;;;;7393206;19;20584;-73
2022/09/01 03:28:50;;;;;;;67.40;38.00;;;;;12.90;94320.00;;;;7393874;19;20196;-74
2022/09/01 03:31:21;;;;;;;88.65;41.20;;;;;12.90;94326.00;;;;7395736;19;20141;-73
2022/09/01 03:33:59;;;;;;;157.73;39.50;;;;;12.90;94326.00;;;;7393925;19;20128;-73
2022/09/01 03:36:28;;;;;;;102.18;41.75;;;;;12.80;94328.00;;;;7394778;19;20465;-73
2022/09/01 03:39:08;;;;;;;247.02;47.10;;;;;12.80;94323.00;;;;7394676;19;20188;-73
2022/09/01 03:41:44;;;;;;;376.58;47.15;;;;;12.80;94332.00;;;;7395054;19;20160;-73
2022/09/01 03:44:22;;;;;;;90.32;36.38;;;;;12.80;94333.00;;;;7392135;19;20128;-74
2022/09/01 03:46:50;;;;;;;499.60;48.28;;;;;12.70;94332.00;;;;7393815;19;20594;-74
2022/09/01 03:49:23;;;;;;;821.95;59.65;;;;;12.70;94334.00;;;;7393624;19;20509;-72
2022/09/01 03:52:04;;;;;;;550.25;51.10;;;;;12.70;94321.00;;;;7395868;19;20129;-72
2022/09/01 03:54:35;;;;;;;353.48;40.90;;;;;12.60;94326.00;;;;7391562;19;20196;-73
2022/09/01 03:57:04;;;;;;;610.58;51.10;;;;;12.70;94318.00;;;;7393504;19;20164;-73
2022/09/01 03:59:50;;;;;;;671.10;48.78;;;;;12.60;94317.00;;;;7396599;19;20137;-75
2022/09/01 04:02:21;;;;;;;673.60;52.95;;;;;12.60;94319.00;;;;7392045;19;20599;-72
2022/09/01 04:04:57;;;;;;;357.85;41.10;;;;;12.60;94323.00;;;;7394360;19;20132;-72
2022/09/01 04:07:26;;;;;;;366.17;44.28;;;;;12.60;94327.00;;;;7392070;19;20160;-72
2022/09/01 04:09:56;;;;;;;231.85;39.30;;;;;12.50;94323.00;;;;7391832;19;20161;-74
2022/09/01 04:12:29;;;;;;;80.43;33.10;;;;;12.50;94323.00;;;;7391545;19;20128;-76
2022/09/01 04:15:07;;;;;;;197.90;40.67;;;;;12.50;94316.00;;;;7389218;19;20267;-73
2022/09/01 04:20:38;;;;;;;143.40;36.35;;;;;12.30;94319.00;;;;7392257;19;20172;-74
2022/09/01 04:23:25;;;;;;;64.57;31.85;;;;;12.30;94312.00;;;;7394066;19;20176;-74
2022/09/01 04:25:56;;;;;;;113.05;35.00;;;;;12.30;94322.00;;;;7390339;19;20152;-73
2022/09/01 04:28:34;;;;;;;61.47;36.58;;;;;12.40;94312.00;;;;7391005;19;20187;-74
2022/09/01 04:31:13;;;;;;;55.45;34.40;;;;;12.30;94317.00;;;;7391222;19;20144;-74
2022/09/01 04:33:52;;;;;;;55.65;32.00;;;;;12.20;94320.00;;;;7392007;19;20152;-74
2022/09/01 04:36:24;;;;;;;52.30;32.25;;;;;12.20;94319.00;;;;7391844;19;20145;-73
2022/09/01 04:39:01;;;;;;;54.63;30.90;;;;;12.10;94314.00;;;;7393005;19;20164;-72
2022/09/01 04:41:31;;;;;;;53.08;30.30;;;;;12.10;94314.00;;;;7392718;19;20149;-73
2022/09/01 04:44:03;;;;;;;52.13;29.38;;;;;12.10;94309.00;;;;7393071;19;20137;-74
2022/09/01 04:46:45;;;;;;;63.25;32.33;;;;;12.10;94314.00;;;;7390974;19;20132;-74
2022/09/01 04:49:18;;;;;;;49.55;29.27;;;;;12.00;94320.00;;;;7390871;19;20148;-73
2022/09/01 04:51:55;;;;;;;45.35;29.92;;;;;12.10;94314.00;;;;7391517;19;20125;-73
2022/09/01 04:54:22;;;;;;;44.83;28.77;;;;;12.10;94324.00;;;;7393319;19;20587;-73
2022/09/01 04:56:51;;;;;;;50.88;29.92;;;;;12.10;94321.00;;;;7390631;19;20148;-73
2022/09/01 04:59:27;;;;;;;46.58;29.85;;;;;12.10;94331.00;;;;7393306;19;20161;-73
2022/09/01 05:01:56;;;;;;;60.45;30.33;;;;;12.00;94324.00;;;;7393923;19;20600;-75
2022/09/01 05:04:32;;;;;;;79.13;31.75;;;;;12.10;94327.00;;;;7388938;19;20172;-73
2022/09/01 05:07:07;;;;;;;422.27;42.60;;;;;12.10;94326.00;;;;7392147;19;20600;-73
2022/09/01 05:09:41;;;;;;;595.70;45.60;;;;;12.10;94327.00;;;;7391452;19;20646;-73
2022/09/01 05:12:11;;;;;;;515.42;50.33;;;;;12.20;94321.00;;;;7389877;19;20496;-73
2022/09/01 05:14:54;;;;;;;494.88;46.17;;;;;12.30;94323.00;;;;7389719;19;20172;-73
2022/09/01 05:17:24;;;;;;;343.33;39.92;;;;;12.30;94325.00;;;;7391262;19;20141;-74
2022/09/01 05:19:58;;;;;;;677.47;51.35;;;;;12.30;94323.00;;;;7392073;19;20603;-74
2022/09/01 05:22:26;;;;;;;614.03;46.35;;;;;12.30;94326.00;;;;7391506;19;20497;-73
2022/09/01 05:24:53;;;;;;;244.15;36.65;;;;;12.30;94325.00;;;;7389724;19;20149;-73
2022/09/01 05:27:30;;;;;;;417.98;41.50;;;;;12.30;94323.00;;;;7395027;19;20656;-73
2022/09/01 05:29:59;;;;;;;476.77;44.30;;;;;12.30;94328.00;;;;7396776;19;20177;-74
2022/09/01 05:32:28;;;;;;;581.65;48.85;;;;;12.40;94316.00;;;;7400610;19;20580;-73
2022/09/01 05:35:07;;;;;;;186.52;40.55;;;;;12.40;94330.00;;;;7398282;19;20168;-73
2022/09/01 05:37:40;;;;;;;117.53;37.20;;;;;12.50;94325.00;;;;7400111;19;20141;-74
2022/09/01 05:40:14;;;;;;;139.57;35.78;;;;;12.50;94323.00;;;;7397061;19;20154;-73
2022/09/01 05:42:46;;;;;;;87.43;35.08;;;;;12.60;94326.00;;;;7399070;19;20192;-74
2022/09/01 05:45:17;;;;;;;57.13;32.92;;;;;12.60;94324.00;;;;7396661;19;20141;-74
2022/09/01 05:47:53;;;;;;;59.80;32.75;;;;;12.70;94328.00;;;;7398644;19;20132;-73
2022/09/01 05:50:21;;;;;;;68.25;34.47;;;;;12.70;94330.00;;;;7395082;19;20491;-74
2022/09/01 05:52:49;;;;;;;61.42;33.60;;;;;12.80;94336.00;;;;7396943;19;20584;-75
2022/09/01 05:55:26;;;;;;;58.65;34.08;;;;;12.90;94330.00;;;;7398803;19;20149;-73
2022/09/01 05:57:55;;;;;;;60.33;33.03;;;;;12.90;94325.00;;;;7397100;19;20617;-74
2022/09/01 06:00:33;;;;;;;59.65;32.40;;;;;13.00;94335.00;;;;7395347;19;20767;-74
2022/09/01 06:03:32;;;;;;;54.13;32.30;;;;;13.00;94319.00;;;;7395237;19;20177;-73
2022/09/01 06:06:11;;;;;;;47.00;30.50;;;;;13.40;94321.00;;;;7397594;19;20148;-73
2022/09/01 06:08:48;;;;;;;45.45;30.23;;;;;13.40;94314.00;;;;7395321;19;20160;-73
2022/09/01 06:11:17;;;;;;;43.00;29.67;;;;;13.60;94308.00;;;;7399526;19;20125;-73
2022/09/01 06:13:46;;;;;;;43.80;29.65;;;;;13.70;94310.00;;;;7399349;19;20148;-73
2022/09/01 06:16:23;;;;;;;38.08;27.75;;;;;13.80;94307.00;;;;7394681;19;20156;-74
2022/09/01 06:18:52;;;;;;;39.40;27.73;;;;;13.80;94308.00;;;;7397235;19;20156;-73
2022/09/01 06:21:27;;;;;;;33.78;27.08;;;;;14.00;94312.00;;;;7395770;19;20140;-73
2022/09/01 06:24:05;;;;;;;37.72;28.10;;;;;14.10;94306.00;;;;7397221;19;20623;-75
2022/09/01 06:26:41;;;;;;;32.33;25.13;;;;;14.20;94309.00;;;;7394842;19;20607;-73
2022/09/01 06:29:14;;;;;;;31.83;26.05;;;;;14.40;94308.00;;;;7400102;19;20129;-73
2022/09/01 06:31:51;;;;;;;34.05;25.35;;;;;14.40;94303.00;;;;7396250;19;20148;-72
2022/09/01 06:34:22;;;;;;;30.58;24.10;;;;;14.60;94313.00;;;;7396894;19;20536;-73
2022/09/01 06:36:52;;;;;;;26.88;22.23;;;;;14.60;94319.00;;;;7394689;19;20165;-73
2022/09/01 06:39:26;;;;;;;25.73;21.48;;;;;14.70;94313.00;;;;7395855;19;20614;-73
2022/09/01 06:41:57;;;;;;;24.60;19.48;;;;;14.90;94314.00;;;;7395743;19;20144;-73
2022/09/01 06:44:29;;;;;;;22.80;18.48;;;;;14.90;94313.00;;;;7393762;19;20198;-74
2022/09/01 06:47:07;;;;;;;22.40;18.98;;;;;15.00;94313.00;;;;7395573;19;20682;-75
2022/09/01 06:49:38;;;;;;;20.75;18.52;;;;;15.20;94310.00;;;;7398864;19;20129;-74
2022/09/01 06:52:14;;;;;;;20.67;17.88;;;;;15.40;94320.00;;;;7394354;19;20151;-73
2022/09/01 06:54:42;;;;;;;21.00;16.63;;;;;15.50;94321.00;;;;7394422;19;20161;-72
2022/09/01 06:57:10;;;;;;;19.27;16.00;;;;;15.40;94320.00;;;;7396876;19;20141;-75
2022/09/01 07:00:10;;;;;;;17.10;14.95;;;;;15.80;94337.00;;;;7394640;19;20183;-73
2022/09/01 07:02:41;;;;;;;18.77;14.80;;;;;15.50;94335.00;;;;7394559;19;20187;-73
2022/09/01 07:05:20;;;;;;;14.85;13.07;;;;;15.50;94334.00;;;;7387253;19;20156;-75
2022/09/01 07:08:12;;;;;;;14.57;12.40;;;;;15.30;94327.00;;;;7387669;19;20156;-74
2022/09/01 07:10:49;;;;;;;12.77;11.48;;;;;15.40;94331.00;;;;7385209;19;20265;-75
2022/09/01 07:13:54;;;;;;;14.55;11.65;;;;;15.70;94331.00;;;;7385290;19;20175;-73
2022/09/01 07:16:57;;;;;;;15.15;9.95;;;;;15.80;94340.00;;;;7387676;19;20141;-72
2022/09/01 07:19:46;;;;;;;12.90;10.48;;;;;15.90;94339.00;;;;7393423;19;20156;-73
2022/09/01 07:22:20;;;;;;;14.05;9.77;;;;;16.10;94338.00;;;;7389310;19;20164;-76
2022/09/01 07:25:11;;;;;;;10.45;9.38;;;;;16.20;94340.00;;;;7389988;19;20152;-73
2022/09/01 07:27:49;;;;;;;10.60;9.50;;;;;16.20;94346.00;;;;7394695;19;20466;-73
2022/09/01 07:30:20;;;;;;;12.35;10.60;;;;;16.30;94343.00;;;;7390402;19;20623;-74
2022/09/01 07:32:54;;;;;;;10.63;9.52;;;;;16.70;94329.00;;;;7391142;19;20579;-73
2022/09/01 07:35:25;;;;;;;13.52;10.50;;;;;17.00;94334.00;;;;7393142;19;20129;-73
2022/09/01 07:37:54;;;;;;;12.70;10.75;;;;;17.20;94336.00;;;;7394171;19;20564;-74
2022/09/01 07:40:51;;;;;;;12.35;10.23;;;;;17.10;94340.00;;;;7393840;19;21024;-73
2022/09/01 07:43:43;;;;;;;16.65;10.73;;;;;16.90;94341.00;;;;7392819;19;20504;-73
2022/09/01 07:46:21;;;;;;;12.07;10.32;;;;;16.90;94349.00;;;;7389528;19;20181;-74
2022/09/01 07:49:05;;;;;;;12.25;10.05;;;;;16.70;94342.00;;;;7389975;19;20132;-73
2022/09/01 07:51:57;;;;;;;11.35;10.15;;;;;16.50;94356.00;;;;7389719;19;20156;-74
2022/09/01 07:54:26;;;;;;;11.73;10.52;;;;;16.40;94356.00;;;;7393496;19;20791;-73
2022/09/01 07:57:00;;;;;;;12.38;11.00;;;;;16.50;94367.00;;;;7392194;19;20177;-72
2022/09/01 07:59:32;;;;;;;15.13;10.77;;;;;16.70;94356.00;;;;7394271;19;20948;-71
2022/09/01 08:02:03;;;;;;;11.15;9.95;;;;;16.90;94359.00;;;;7391354;19;20164;-74
2022/09/01 08:04:38;;;;;;;11.77;10.20;;;;;17.20;94365.00;;;;7390450;19;20163;-73
2022/09/01 08:07:14;;;;;;;12.13;9.57;;;;;16.90;94367.00;;;;7384892;19;20152;-71
2022/09/01 08:09:48;;;;;;;11.38;10.18;;;;;16.70;94366.00;;;;7389849;19;20136;-72
2022/09/01 08:12:16;;;;;;;10.65;9.60;;;;;16.70;94373.00;;;;7392782;19;20152;-72
2022/09/01 08:14:45;;;;;;;10.20;9.25;;;;;16.50;94375.00;;;;7390491;19;20658;-72
2022/09/01 08:17:46;;;;;;;10.75;9.70;;;;;16.50;94384.00;;;;7392211;19;20144;-72
2022/09/01 08:20:18;;;;;;;10.02;9.05;;;;;16.50;94378.00;;;;7390603;19;20160;-72
2022/09/01 08:22:52;;;;;;;13.88;9.60;;;;;16.80;94382.00;;;;7390861;19;20223;-72
2022/09/01 08:25:20;;;;;;;11.50;10.15;;;;;16.90;94383.00;;;;7389229;19;20160;-73
2022/09/01 08:27:51;;;;;;;10.00;8.98;;;;;16.70;94380.00;;;;7392658;19;20171;-72
2022/09/01 08:30:28;;;;;;;10.45;9.35;;;;;16.70;94376.00;;;;7388794;19;20159;-72
2022/09/01 08:32:56;;;;;;;10.10;8.88;;;;;16.70;94371.00;;;;7393943;19;20133;-72
2022/09/01 08:35:24;;;;;;;11.32;8.90;;;;;16.60;94385.00;;;;7391941;19;20624;-72
2022/09/01 08:38:02;;;;;;;8.75;7.88;;;;;16.70;94381.00;;;;7392642;19;20616;-71
2022/09/01 08:40:30;;;;;;;12.25;7.35;;;;;16.40;94388.00;;;;7390608;19;20137;-72
2022/09/01 08:43:06;;;;;;;8.60;7.30;;;;;16.50;94384.00;;;;7393127;19;20160;-71
2022/09/01 08:45:56;;;;;;;8.05;6.35;;;;;16.90;94383.00;;;;7392126;19;20153;-72
2022/09/01 08:48:33;;;;;;;7.72;7.00;;;;;16.80;94387.00;;;;7387103;19;20160;-71
2022/09/01 08:52:04;;;;;;;7.75;6.65;;;;;16.70;94393.00;;;;7390793;19;20158;-71
2022/09/01 08:54:45;;;;;;;8.48;6.95;;;;;16.60;94389.00;;;;7389528;19;20129;-71
2022/09/01 08:57:38;;;;;;;8.95;7.05;;;;;16.80;94386.00;;;;7390748;19;20157;-71
2022/09/01 09:00:09;;;;;;;8.45;6.70;;;;;16.80;94391.00;;;;7389016;19;20160;-72
2022/09/01 09:03:04;;;;;;;7.32;5.53;;;;;17.20;94384.00;;;;7401947;19;20504;-71
2022/09/01 09:06:09;;;;;;;6.63;6.03;;;;;17.50;94374.00;;;;7402182;19;20134;-74
2022/09/01 09:08:56;;;;;;;7.22;6.53;;;;;17.50;94374.00;;;;7399012;19;20485;-72
2022/09/01 09:11:43;;;;;;;8.80;6.68;;;;;17.30;94384.00;;;;7399127;19;20152;-70
2022/09/01 09:14:27;;;;;;;8.73;7.40;;;;;17.30;94392.00;;;;7399485;19;20491;-73
2022/09/01 09:16:58;;;;;;;9.30;7.32;;;;;17.40;94397.00;;;;7396896;19;20156;-73
2022/09/01 09:19:53;;;;;;;10.15;7.60;;;;;17.10;94394.00;;;;7395892;19;20868;-71
2022/09/01 09:22:28;;;;;;;9.02;7.50;;;;;17.10;94394.00;;;;7393988;19;20204;-72
2022/09/01 09:25:11;;;;;;;10.02;8.57;;;;;17.00;94398.00;;;;7395389;19;20604;-72
2022/09/01 09:27:41;;;;;;;11.38;7.93;;;;;17.00;94397.00;;;;7398336;19;20595;-73
2022/09/01 09:30:25;;;;;;;9.18;8.23;;;;;17.20;94407.00;;;;7398423;19;20132;-71
2022/09/01 09:32:59;;;;;;;24.00;8.77;;;;;17.30;94394.00;;;;7397251;19;20604;-71
2022/09/01 09:35:56;;;;;;;9.35;8.10;;;;;17.40;94402.00;;;;7397868;19;20580;-70
2022/09/01 09:38:27;;;;;;;8.45;7.65;;;;;17.10;94400.00;;;;7392701;19;20177;-73
2022/09/01 09:41:17;;;;;;;9.10;6.78;;;;;17.20;94401.00;;;;7399605;19;20152;-72
2022/09/01 09:43:58;;;;;;;7.78;7.00;;;;;17.40;94390.00;;;;7399873;19;20185;-72
2022/09/01 09:46:44;;;;;;;7.82;6.97;;;;;17.50;94388.00;;;;7396090;19;20156;-71
2022/09/01 09:49:28;;;;;;;5.68;5.07;;;;;17.60;94391.00;;;;7395793;19;20182;-71
2022/09/01 09:52:21;;;;;;;6.15;5.00;;;;;17.70;94385.00;;;;7398191;19;20164;-71
2022/09/01 09:55:20;;;;;;;5.40;4.90;;;;;18.40;94384.00;;;;7394874;19;20631;-71
2022/09/01 09:58:00;;;;;;;5.47;4.63;;;;;18.80;94389.00;;;;7398212;19;20160;-72
2022/09/01 10:00:34;;;;;;;6.00;4.60;;;;;18.90;94391.00;;;;7394293;19;20612;-72
2022/09/01 10:03:13;;;;;;;7.53;6.05;;;;;19.00;94380.00;;;;7399787;19;20196;-72
2022/09/01 10:05:47;;;;;;;6.38;5.28;;;;;19.50;94381.00;;;;7398616;19;20172;-70
2022/09/01 10:08:35;;;;;;;6.03;5.30;;;;;19.90;94380.00;;;;7394738;19;20132;-73
2022/09/01 10:11:04;;;;;;;5.78;5.28;;;;;19.70;94379.00;;;;7395224;19;20148;-72
2022/09/01 10:13:52;;;;;;;5.45;4.95;;;;;19.40;94386.00;;;;7398273;19;20117;-73
2022/09/01 10:16:35;;;;;;;5.90;5.22;;;;;19.40;94382.00;;;;7395589;19;20169;-71
2022/09/01 10:19:15;;;;;;;6.18;5.45;;;;;19.50;94390.00;;;;7398196;19;20139;-72
2022/09/01 10:21:44;;;;;;;4.72;4.22;;;;;19.50;94384.00;;;;7398838;19;20158;-72
2022/09/01 10:24:29;;;;;;;5.03;4.63;;;;;19.50;94367.00;;;;7394279;19;20136;-72
2022/09/01 10:27:00;;;;;;;8.70;4.50;;;;;20.00;94371.00;;;;7396266;19;20216;-73
2022/09/01 10:29:45;;;;;;;7.75;5.43;;;;;20.70;94375.00;;;;7396952;19;20587;-72
2022/09/01 10:32:32;;;;;;;7.90;7.10;;;;;20.40;94358.00;;;;7393840;19;20145;-72
2022/09/01 10:35:29;;;;;;;11.95;7.47;;;;;21.00;94359.00;;;;7396603;19;20614;-71
2022/09/01 10:38:02;;;;;;;7.65;6.88;;;;;21.20;94376.00;;;;7395736;19;20663;-72
2022/09/01 10:40:44;;;;;;;6.43;5.82;;;;;21.00;94368.00;;;;7396697;19;20155;-73
2022/09/01 10:43:34;;;;;;;7.05;6.35;;;;;20.60;94368.00;;;;7397234;19;20643;-72
2022/09/01 10:46:20;;;;;;;7.13;6.43;;;;;20.30;94372.00;;;;7397383;19;20494;-71
2022/09/01 10:48:56;;;;;;;7.47;6.68;;;;;20.20;94374.00;;;;7395694;19;20129;-74
2022/09/01 10:51:42;;;;;;;9.95;6.97;;;;;20.50;94358.00;;;;7397019;19;20153;-71
2022/09/01 10:54:40;;;;;;;7.22;5.95;;;;;20.90;94355.00;;;;7392733;19;20145;-72
2022/09/01 10:57:25;;;;;;;6.65;5.50;;;;;21.30;94366.00;;;;7394850;19;20149;-72
2022/09/01 10:59:56;;;;;;;5.78;5.20;;;;;21.80;94352.00;;;;7388570;19;20128;-73
2022/09/01 11:02:31;;;;;;;5.88;5.28;;;;;21.00;94355.00;;;;7389223;19;20214;-72
2022/09/01 11:05:15;;;;;;;7.28;5.22;;;;;21.70;94340.00;;;;7390353;19;20136;-72
2022/09/01 11:07:49;;;;;;;5.57;4.68;;;;;22.20;94342.00;;;;7389951;19;20141;-73
2022/09/01 11:10:48;;;;;;;5.60;4.50;;;;;22.50;94345.00;;;;7388585;19;20608;-74
2022/09/01 11:13:49;;;;;;;6.13;4.65;;;;;22.00;94356.00;;;;7390156;19;20661;-74
2022/09/01 11:16:36;;;;;;;5.30;4.80;;;;;21.30;94350.00;;;;7389558;19;20170;-74
2022/09/01 11:19:25;;;;;;;6.07;4.18;;;;;21.70;94344.00;;;;7388844;19;20155;-73
2022/09/01 11:22:36;;;;;;;3.75;3.42;;;;;21.80;94358.00;;;;7387713;19;20164;-72
2022/09/01 11:25:47;;;;;;;6.13;3.15;;;;;21.40;94345.00;;;;7387104;19;20143;-73
2022/09/01 11:28:40;;;;;;;3.80;3.40;;;;;22.30;94355.00;;;;7388250;19;20624;-73
2022/09/01 11:31:31;;;;;;;4.28;3.08;;;;;22.70;94350.00;;;;7390926;19;20143;-74
2022/09/01 11:34:18;;;;;;;4.47;3.13;;;;;21.80;94355.00;;;;7389642;19;20624;-73
2022/09/01 11:36:59;;;;;;;4.15;3.05;;;;;20.80;94359.00;;;;7390583;19;20129;-72
2022/09/01 11:39:49;;;;;;;5.75;2.95;;;;;20.20;94354.00;;;;7389494;19;20136;-72
2022/09/01 11:42:33;;;;;;;5.25;3.20;;;;;20.20;94364.00;;;;7385954;19;20164;-73
2022/09/01 11:45:14;;;;;;;6.63;3.60;;;;;19.90;94367.00;;;;7388697;19;20588;-73
2022/09/01 11:48:11;;;;;;;3.63;3.20;;;;;20.00;94371.00;;;;7384408;19;20128;-73
2022/09/01 11:50:41;;;;;;;3.83;3.53;;;;;19.80;94368.00;;;;7386751;19;20160;-72
2022/09/01 11:53:21;;;;;;;3.58;3.28;;;;;19.90;94371.00;;;;7387588;19;20664;-71
2022/09/01 11:55:51;;;;;;;3.50;3.20;;;;;20.70;94359.00;;;;7388520;19;20136;-73
2022/09/01 11:58:30;;;;;;;5.78;3.42;;;;;21.50;94354.00;;;;7388900;19;20137;-73
2022/09/01 12:01:28;;;;;;;3.72;3.42;;;;;21.10;94344.00;;;;7387554;19;20189;-71
2022/09/01 12:04:25;;;;;;;3.40;3.10;;;;;21.70;94337.00;;;;7385963;19;20252;-73
2022/09/01 12:07:09;;;;;;;3.50;3.20;;;;;21.80;94357.00;;;;7386277;19;20156;-75
2022/09/01 12:09:51;;;;;;;3.20;2.90;;;;;21.80;94334.00;;;;7387103;19;20169;-74
2022/09/01 12:12:31;;;;;;;3.42;3.10;;;;;22.10;94345.00;;;;7388267;19;20160;-73
2022/09/01 12:15:26;;;;;;;3.30;3.00;;;;;22.50;94335.00;;;;7389056;19;20164;-74
2022/09/01 12:18:18;;;;;;;3.13;2.83;;;;;23.10;94331.00;;;;7388251;19;20157;-73
2022/09/01 12:20:56;;;;;;;3.33;3.03;;;;;23.10;94325.00;;;;7383541;19;20161;-74
2022/09/01 12:23:34;;;;;;;3.33;3.03;;;;;23.10;94328.00;;;;7388704;19;20159;-74
2022/09/01 12:26:29;;;;;;;3.65;3.17;;;;;23.10;94344.00;;;;7385470;19;20227;-75
2022/09/01 12:28:57;;;;;;;2.78;2.58;;;;;22.30;94346.00;;;;7388142;19;20121;-74
2022/09/01 12:31:31;;;;;;;6.70;3.15;;;;;21.90;94343.00;;;;7384426;19;20158;-73
2022/09/01 12:34:01;;;;;;;3.33;2.88;;;;;22.70;94337.00;;;;7384414;19;20143;-74
2022/09/01 12:36:35;;;;;;;4.82;3.00;;;;;23.50;94327.00;;;;7384677;19;20160;-74
2022/09/01 12:39:21;;;;;;;3.70;2.70;;;;;23.40;94327.00;;;;7385931;19;20618;-73
2022/09/01 12:42:09;;;;;;;2.78;2.58;;;;;23.10;94332.00;;;;7386855;19;20133;-74
2022/09/01 12:44:50;;;;;;;4.18;2.90;;;;;23.30;94321.00;;;;7387317;19;20152;-74
2022/09/01 12:47:33;;;;;;;3.17;2.90;;;;;23.60;94326.00;;;;7384925;19;20158;-73
2022/09/01 12:50:13;;;;;;;8.38;2.97;;;;;23.70;94322.00;;;;7387296;19;20575;-72
2022/09/01 12:52:51;;;;;;;3.05;2.60;;;;;23.80;94330.00;;;;7386924;19;20693;-74
2022/09/01 12:55:27;;;;;;;3.20;2.80;;;;;23.80;94325.00;;;;7387111;19;20636;-74
2022/09/01 12:58:26;;;;;;;2.50;2.30;;;;;24.10;94320.00;;;;7385098;19;20829;-73
2022/09/01 13:01:06;;;;;;;3.15;2.72;;;;;24.00;94321.00;;;;7386767;19;20575;-75